Time;durP1;ratioP1;P1;durP2;ratioP2;P2;SDS_P1;SDS_P2;PMS_P1;PMS_P2;Temp;Humidity;BMP_temperature;BMP_pressure;BME280_temperature;BME280_humidity;BME280_pressure;Samples;Min_cycle;Max_cycle;Signal;HPM_P1;HPM_P2
2022/10/31 00:00:17;;;;;;;16.02;8.60;;;;;;;15.53;79.08;101962.09;6219003;23;20019;-64
2022/10/31 00:02:43;;;;;;;16.38;8.43;;;;;;;15.52;78.84;101969.22;6248004;23;20087;-63
2022/10/31 00:05:08;;;;;;;17.88;8.45;;;;;;;15.49;78.70;101966.50;6247705;23;20012;-63
2022/10/31 00:07:33;;;;;;;15.25;8.52;;;;;;;15.48;78.63;101975.38;6247498;23;20447;-63
2022/10/31 00:09:59;;;;;;;17.38;8.00;;;;;;;15.42;79.33;101967.38;6247634;23;20024;-63
2022/10/31 00:12:26;;;;;;;14.45;8.65;;;;;;;15.31;79.61;101976.13;6247916;23;20004;-64
2022/10/31 00:14:51;;;;;;;17.58;9.15;;;;;;;15.19;79.88;101977.78;6247465;23;20004;-63
2022/10/31 00:17:17;;;;;;;19.15;8.75;;;;;;;15.09;80.47;101973.25;6247900;23;20465;-63
2022/10/31 00:19:42;;;;;;;16.85;8.43;;;;;;;14.99;80.80;101969.59;6247507;23;20008;-63
2022/10/31 00:22:07;;;;;;;16.98;9.00;;;;;;;14.97;80.47;101967.78;6247441;23;20016;-63
2022/10/31 00:24:33;;;;;;;19.38;8.68;;;;;;;14.96;80.68;101974.88;6247249;23;20107;-63
2022/10/31 00:26:58;;;;;;;16.88;8.90;;;;;;;15.05;80.35;101976.75;6247522;23;20039;-63
2022/10/31 00:29:23;;;;;;;13.95;8.55;;;;;;;15.16;79.39;101977.78;6247685;23;20008;-63
2022/10/31 00:31:49;;;;;;;17.23;9.30;;;;;;;15.23;79.28;101976.94;6247555;23;20438;-63
2022/10/31 00:34:14;;;;;;;14.45;7.95;;;;;;;15.27;78.17;101973.41;6247298;23;20008;-63
2022/10/31 00:36:40;;;;;;;15.15;8.00;;;;;;;15.30;77.44;101971.69;6247625;23;20043;-63
2022/10/31 00:39:05;;;;;;;11.55;7.90;;;;;;;15.24;76.98;101970.72;6247119;23;20083;-63
2022/10/31 00:41:30;;;;;;;15.85;8.57;;;;;;;15.07;77.54;101968.78;6247611;23;20005;-62
2022/10/31 00:43:56;;;;;;;12.75;8.18;;;;;;;14.97;78.24;101965.13;6247625;23;20427;-63
2022/10/31 00:46:21;;;;;;;17.80;8.27;;;;;;;14.89;78.76;101958.84;6247320;23;20011;-62
2022/10/31 00:48:46;;;;;;;13.95;8.55;;;;;;;14.84;79.08;101955.22;6247617;23;20095;-63
2022/10/31 00:51:12;;;;;;;12.85;8.15;;;;;;;14.75;79.41;101956.03;6247289;23;20008;-63
2022/10/31 00:53:37;;;;;;;14.95;8.68;;;;;;;14.69;79.79;101951.53;6246964;23;20319;-63
2022/10/31 00:56:03;;;;;;;14.70;9.10;;;;;;;14.72;80.29;101954.22;6220073;23;20031;-63
2022/10/31 00:58:29;;;;;;;12.27;8.43;;;;;;;14.70;79.96;101955.97;6246938;23;20087;-63
2022/10/31 01:00:54;;;;;;;15.75;8.68;;;;;;;14.74;79.82;101955.13;6247275;23;20028;-63
2022/10/31 01:03:25;;;;;;;14.55;8.90;;;;;;;14.85;79.61;101960.56;6247152;23;20435;-63
2022/10/31 01:06:03;;;;;;;16.58;8.80;;;;;;;14.92;79.52;101962.41;6247155;23;20004;-63
2022/10/31 01:08:29;;;;;;;14.73;8.82;;;;;;;14.92;78.48;101975.72;6247134;23;20004;-63
2022/10/31 01:11:01;;;;;;;15.80;8.00;;;;;;;14.96;77.13;101966.00;6247330;23;20008;-64
2022/10/31 01:13:26;;;;;;;14.20;8.23;;;;;;;15.01;77.50;101959.84;6246952;23;20431;-63
2022/10/31 01:15:59;;;;;;;15.98;8.07;;;;;;;15.05;77.75;101942.16;6246947;23;20055;-62
2022/10/31 01:18:26;;;;;;;15.75;7.82;;;;;;;15.08;77.41;101944.84;6246982;23;20057;-64
2022/10/31 01:21:12;;;;;;;14.90;7.93;;;;;;;15.12;77.54;101937.78;6246985;23;20445;-62
2022/10/31 01:23:38;;;;;;;12.00;8.10;;;;;;;15.05;77.06;101939.50;6246891;23;20419;-63
2022/10/31 01:26:17;;;;;;;13.10;7.95;;;;;;;14.91;77.26;101938.47;6246322;23;20008;-63
2022/10/31 01:28:51;;;;;;;13.43;7.57;;;;;;;14.87;77.73;101947.28;6247243;23;20004;-63
2022/10/31 01:31:18;;;;;;;10.18;7.35;;;;;;;14.78;77.08;101948.09;6247297;23;20127;-63
2022/10/31 01:33:43;;;;;;;12.65;7.20;;;;;;;14.72;77.23;101943.56;6219822;23;20016;-63
2022/10/31 01:36:15;;;;;;;11.05;6.90;;;;;;;14.60;77.62;101946.06;6246805;23;20008;-63
2022/10/31 01:38:41;;;;;;;11.98;7.43;;;;;;;14.47;78.24;101947.69;6246617;23;20341;-63
2022/10/31 01:41:06;;;;;;;11.15;7.15;;;;;;;14.40;78.02;101944.94;6246896;23;20036;-63
2022/10/31 01:44:13;;;;;;;12.35;7.72;;;;;;;14.38;78.41;101954.63;6246781;23;20091;-62
2022/10/31 01:46:59;;;;;;;14.07;7.32;;;;;;;14.26;78.81;101952.72;6149298;23;20037;-63
2022/10/31 01:49:27;;;;;;;13.23;7.10;;;;;;;14.18;79.12;101951.75;6245960;23;20011;-62
2022/10/31 01:52:04;;;;;;;12.48;7.72;;;;;;;14.21;79.75;101957.97;6246538;23;20011;-62
2022/10/31 01:54:35;;;;;;;13.05;7.95;;;;;;;14.27;79.65;101959.84;6246647;23;20008;-63
2022/10/31 01:57:02;;;;;;;13.70;7.05;;;;;;;14.36;78.63;101959.06;6246730;23;20007;-63
2022/10/31 01:59:30;;;;;;;11.85;7.35;;;;;;;14.43;78.02;101956.50;6246685;23;20035;-63
2022/10/31 02:01:56;;;;;;;10.48;7.28;;;;;;;14.50;77.67;101954.84;6246889;23;20031;-63
2022/10/31 02:04:24;;;;;;;10.02;7.03;;;;;;;14.50;76.53;101952.19;6246532;23;20422;-63
2022/10/31 02:06:56;;;;;;;12.52;6.97;;;;;;;14.53;77.15;101952.22;6246518;23;20072;-62
2022/10/31 02:09:23;;;;;;;12.20;7.07;;;;;;;14.48;76.55;101944.19;6246660;23;20007;-63
2022/10/31 02:11:54;;;;;;;10.70;6.65;;;;;;;14.45;76.11;101940.56;6246747;23;20008;-63
2022/10/31 02:14:26;;;;;;;10.23;6.90;;;;;;;14.46;76.49;101940.56;6246742;23;20090;-63
2022/10/31 02:16:51;;;;;;;9.27;6.23;;;;;;;14.42;76.04;101940.50;6246450;23;20004;-63
2022/10/31 02:19:36;;;;;;;12.38;6.10;;;;;;;14.44;76.51;101934.34;6246407;23;20008;-63
2022/10/31 02:22:20;;;;;;;10.30;6.38;;;;;;;14.35;76.19;101939.56;6246763;23;20312;-62
2022/10/31 02:25:08;;;;;;;10.02;5.90;;;;;;;14.29;76.26;101944.78;6246122;23;20018;-63
2022/10/31 02:27:52;;;;;;;10.77;7.20;;;;;;;14.32;76.79;101935.97;6230080;23;20031;-62
2022/10/31 02:30:39;;;;;;;10.20;7.15;;;;;;;14.33;77.42;101943.06;6246386;23;20435;-62
2022/10/31 02:33:17;;;;;;;10.57;7.05;;;;;;;14.29;76.49;101936.81;6246141;23;20423;-62
2022/10/31 02:36:11;;;;;;;12.65;7.20;;;;;;;14.23;77.05;101934.09;6246226;23;20036;-63
2022/10/31 02:39:18;;;;;;;11.80;6.75;;;;;;;14.19;76.20;101942.88;6246130;23;20004;-62
2022/10/31 02:42:31;;;;;;;8.18;6.22;;;;;;;14.15;76.02;101939.28;6246552;23;20091;-62
2022/10/31 02:45:30;;;;;;;9.32;5.85;;;;;;;13.92;75.89;101938.09;6124063;23;20064;-62
2022/10/31 02:48:02;;;;;;;9.63;6.15;;;;;;;13.66;76.65;101935.00;6246513;23;20004;-63
2022/10/31 02:50:34;;;;;;;7.43;5.63;;;;;;;13.49;77.15;101937.44;6246271;23;20008;-63
2022/10/31 02:53:00;;;;;;;;;;;;;;;13.57;76.08;101932.22;6246600;23;20430;-63
2022/10/31 02:55:26;;;;;;;10.82;6.55;;;;;;;13.33;78.29;101928.31;6246041;23;19992;-62
2022/10/31 02:57:59;;;;;;;10.02;7.03;;;;;;;13.39;79.94;101933.69;6245892;23;20034;-63
2022/10/31 03:00:25;;;;;;;12.45;7.35;;;;;;;13.45;78.94;101935.59;6246084;23;20042;-63
2022/10/31 03:03:35;;;;;;;12.65;6.60;;;;;;;13.55;78.33;101934.84;6245912;23;20005;-62
2022/10/31 03:06:13;;;;;;;9.88;6.32;;;;;;;13.60;77.74;101940.25;6198766;23;20008;-62
2022/10/31 03:08:59;;;;;;;10.82;7.25;;;;;;;13.64;78.19;101945.63;6245415;23;20385;-64
2022/10/31 03:11:32;;;;;;;11.70;7.15;;;;;;;13.72;78.61;101943.09;6246145;23;20012;-63
2022/10/31 03:14:10;;;;;;;10.50;7.13;;;;;;;13.76;78.36;101942.28;6246271;23;20000;-62
2022/10/31 03:16:47;;;;;;;11.15;7.60;;;;;;;13.86;79.17;101953.91;6246090;23;20082;-62
2022/10/31 03:19:38;;;;;;;16.35;7.80;;;;;;;13.92;79.06;101944.28;6246299;23;20004;-63
2022/10/31 03:22:06;;;;;;;10.45;7.78;;;;;;;13.94;79.07;101939.88;6245099;23;20012;-63
2022/10/31 03:24:37;;;;;;;11.60;7.10;;;;;;;13.95;77.79;101939.00;6245626;23;20395;-64
2022/10/31 03:27:05;;;;;;;14.02;7.82;;;;;;;13.96;78.29;101938.16;6246393;23;20016;-63
2022/10/31 03:29:35;;;;;;;12.88;8.07;;;;;;;13.95;78.62;101938.09;6245962;23;20428;-63
2022/10/31 03:32:09;;;;;;;19.42;8.30;;;;;;;14.00;79.13;101937.31;6246232;23;20046;-62
2022/10/31 03:34:38;;;;;;;13.15;7.22;;;;;;;13.95;78.06;101939.00;6246107;23;20000;-62
2022/10/31 03:37:07;;;;;;;15.07;7.97;;;;;;;13.92;78.57;101936.31;6247753;23;20032;-62
2022/10/31 03:39:34;;;;;;;14.15;8.18;;;;;;;13.90;79.10;101931.84;6247738;23;20031;-63
2022/10/31 03:42:08;;;;;;;12.70;7.65;;;;;;;13.87;78.27;101939.75;6247916;23;20008;-63
2022/10/31 03:44:35;;;;;;;11.40;6.97;;;;;;;13.85;77.76;101936.19;6248019;23;20334;-63
2022/10/31 03:47:03;;;;;;;11.68;7.53;;;;;;;13.87;78.84;101931.78;6247910;23;20054;-63
2022/10/31 03:49:29;;;;;;;12.18;7.38;;;;;;;13.86;78.79;101933.56;6247839;23;20016;-62
2022/10/31 03:52:01;;;;;;;14.05;8.05;;;;;;;13.91;79.25;101938.94;6247787;23;20492;-63
2022/10/31 03:54:41;;;;;;;14.38;9.00;;;;;;;13.90;80.29;101935.38;6247631;23;20409;-62
2022/10/31 03:57:24;;;;;;;13.75;7.65;;;;;;;13.90;79.53;101924.75;6248036;23;20084;-63
2022/10/31 04:00:07;;;;;;;11.85;7.35;;;;;;;13.94;79.71;101931.00;6247712;23;20326;-63
2022/10/31 04:02:37;;;;;;;12.05;7.40;;;;;;;13.90;79.71;101921.22;6247627;23;20000;-62
2022/10/31 04:05:03;;;;;;;11.50;6.72;;;;;;;13.83;78.25;101927.28;6247625;23;20011;-62
2022/10/31 04:07:35;;;;;;;15.20;6.70;;;;;;;13.61;77.65;101932.28;6247657;23;20015;-63
2022/10/31 04:10:04;;;;;;;10.70;6.30;;;;;;;13.52;77.76;101930.38;6247731;23;20004;-63
2022/10/31 04:12:32;;;;;;;11.93;7.43;;;;;;;13.56;80.50;101936.63;6247283;23;20422;-61
2022/10/31 04:14:58;;;;;;;12.73;8.32;;;;;;;13.62;81.27;101931.44;6247588;23;20004;-62
2022/10/31 04:17:29;;;;;;;14.35;8.75;;;;;;;13.67;81.86;101937.72;6247639;23;20004;-62
2022/10/31 04:19:54;;;;;;;13.80;8.75;;;;;;;13.67;80.79;101942.13;6247976;23;20007;-63
2022/10/31 04:22:20;;;;;;;12.05;7.35;;;;;;;13.63;79.99;101946.50;6247536;23;20012;-63
2022/10/31 04:24:45;;;;;;;13.80;9.18;;;;;;;13.59;81.71;101941.13;6247460;23;20012;-63
2022/10/31 04:27:10;;;;;;;15.32;8.13;;;;;;;13.65;82.17;101935.88;6247478;23;20070;-63
2022/10/31 04:29:36;;;;;;;16.98;10.18;;;;;;;13.63;82.62;101937.63;6220692;23;20016;-63
2022/10/31 04:32:01;;;;;;;15.90;9.48;;;;;;;13.63;81.99;101933.22;6247359;23;20015;-63
2022/10/31 04:34:27;;;;;;;12.45;8.30;;;;;;;13.66;82.38;101941.25;6247378;23;20004;-63
2022/10/31 04:36:52;;;;;;;15.85;9.90;;;;;;;13.55;82.77;101941.94;6247737;23;20015;-63
2022/10/31 04:39:17;;;;;;;24.33;10.50;;;;;;;13.59;83.19;101938.47;6247098;23;20008;-62
2022/10/31 04:41:43;;;;;;;18.08;9.93;;;;;;;13.60;83.16;101935.81;6247516;23;20017;-62
2022/10/31 04:44:08;;;;;;;15.07;9.68;;;;;;;13.59;83.52;101943.78;6247388;23;20351;-63
2022/10/31 04:46:33;;;;;;;19.65;10.55;;;;;;;13.57;83.57;101942.84;6246895;23;20015;-63
2022/10/31 04:48:59;;;;;;;19.52;10.10;;;;;;;13.55;83.95;101934.84;6247565;23;20050;-62
2022/10/31 04:51:24;;;;;;;18.20;11.25;;;;;;;13.52;83.96;101932.16;6195524;23;20047;-62
2022/10/31 04:53:49;;;;;;;16.95;9.95;;;;;;;13.55;84.11;101932.19;6247058;23;20401;-63
2022/10/31 04:56:15;;;;;;;16.60;10.10;;;;;;;13.60;84.19;101932.28;6247164;23;20011;-63
2022/10/31 04:58:40;;;;;;;16.73;9.90;;;;;;;13.59;84.15;101930.50;6246951;23;20012;-63
2022/10/31 05:01:06;;;;;;;19.13;9.77;;;;;;;13.62;83.47;101931.44;6247161;23;20016;-62
2022/10/31 05:03:31;;;;;;;16.92;10.05;;;;;;;13.58;83.22;101928.72;6247166;23;20130;-63
2022/10/31 05:05:56;;;;;;;19.70;11.18;;;;;;;13.57;83.62;101930.44;6247205;23;20012;-63
2022/10/31 05:08:22;;;;;;;18.17;11.20;;;;;;;13.52;84.27;101925.06;6220460;23;20005;-62
2022/10/31 05:10:47;;;;;;;20.63;11.02;;;;;;;13.55;84.48;101926.00;6247358;23;20005;-63
2022/10/31 05:13:14;;;;;;;15.98;10.27;;;;;;;13.58;83.40;101928.72;6247104;23;20418;-63
2022/10/31 05:15:40;;;;;;;18.58;11.43;;;;;;;13.59;84.04;101922.53;6246975;23;20030;-63
2022/10/31 05:18:05;;;;;;;16.42;10.23;;;;;;;13.50;83.42;101918.84;6247105;23;20438;-63
2022/10/31 05:20:31;;;;;;;14.05;9.27;;;;;;;13.46;82.25;101924.09;6220159;23;20046;-62
2022/10/31 05:22:57;;;;;;;14.77;9.50;;;;;;;13.39;82.12;101914.22;6247234;23;20330;-62
2022/10/31 05:25:26;;;;;;;16.63;8.93;;;;;;;13.30;81.46;101920.28;6246591;23;20031;-62
2022/10/31 05:27:52;;;;;;;18.30;9.80;;;;;;;13.23;82.17;101921.97;6246924;23;20426;-62
2022/10/31 05:30:21;;;;;;;15.50;10.05;;;;;;;13.27;83.88;101920.22;6246992;23;20438;-63
2022/10/31 05:32:49;;;;;;;22.05;9.98;;;;;;;13.29;84.03;101918.50;6246783;23;20027;-63
2022/10/31 05:35:17;;;;;;;15.60;9.77;;;;;;;13.35;84.06;101915.94;6246729;23;20446;-62
2022/10/31 05:37:43;;;;;;;16.92;10.68;;;;;;;13.41;82.84;101917.81;6246726;23;20001;-63
2022/10/31 05:40:10;;;;;;;15.10;10.52;;;;;;;13.44;83.31;101912.53;6219786;23;20015;-62
2022/10/31 05:42:38;;;;;;;15.23;9.35;;;;;;;13.48;82.98;101909.06;6247012;23;20024;-63
2022/10/31 05:45:04;;;;;;;18.42;10.35;;;;;;;13.44;82.14;101908.13;6247001;23;20014;-62
2022/10/31 05:47:29;;;;;;;15.68;9.38;;;;;;;13.42;81.67;101912.53;6246857;23;20330;-62
2022/10/31 05:49:55;;;;;;;17.42;9.52;;;;;;;13.39;82.55;101899.19;6246565;23;20012;-64
2022/10/31 05:52:20;;;;;;;16.65;9.65;;;;;;;13.39;81.67;101912.47;6246724;23;20018;-63
2022/10/31 05:54:45;;;;;;;23.65;10.60;;;;;;;13.34;81.12;101902.66;6219632;23;20019;-61
2022/10/31 05:57:11;;;;;;;14.35;8.63;;;;;;;13.29;81.35;101897.25;6246509;23;20090;-61
2022/10/31 05:59:36;;;;;;;16.55;8.68;;;;;;;13.32;82.42;101902.63;6246069;23;20102;-63
2022/10/31 06:02:02;;;;;;;19.52;10.40;;;;;;;13.30;81.95;101899.03;6246580;23;20015;-63
2022/10/31 06:04:27;;;;;;;13.93;9.18;;;;;;;13.30;82.34;101900.81;6246643;23;20097;-62
2022/10/31 06:06:52;;;;;;;23.50;10.40;;;;;;;13.31;83.11;101895.50;6246862;23;20008;-64
2022/10/31 06:09:18;;;;;;;23.52;9.93;;;;;;;13.33;82.94;101899.09;6246621;23;20442;-63
2022/10/31 06:11:43;;;;;;;30.88;10.45;;;;;;;13.32;82.68;101891.09;6246370;23;20103;-62
2022/10/31 06:14:08;;;;;;;20.23;9.80;;;;;;;13.31;82.90;101898.16;6246617;23;20012;-63
2022/10/31 06:16:34;;;;;;;47.08;10.40;;;;;;;13.29;83.18;101891.97;6246336;23;20008;-63
2022/10/31 06:18:59;;;;;;;13.25;9.80;;;;;;;13.28;83.31;101890.19;6246708;23;20072;-63
2022/10/31 06:21:25;;;;;;;48.03;10.63;;;;;;;13.24;82.61;101889.22;6246415;23;20028;-63
2022/10/31 06:23:51;;;;;;;29.52;9.75;;;;;;;13.19;82.67;101890.88;6246409;23;20004;-63
2022/10/31 06:26:16;;;;;;;34.63;9.82;;;;;;;13.17;82.67;101897.03;6246305;23;20031;-61
2022/10/31 06:28:42;;;;;;;29.40;9.70;;;;;;;13.12;82.18;101893.41;6246399;23;20008;-63
2022/10/31 06:31:07;;;;;;;13.15;8.52;;;;;;;13.11;82.82;101894.28;6246658;23;20381;-62
2022/10/31 06:33:33;;;;;;;10.70;8.57;;;;;;;13.12;83.53;101890.75;6246319;23;20050;-63
2022/10/31 06:35:59;;;;;;;24.90;8.80;;;;;;;13.14;84.27;101887.22;6246511;23;20016;-62
2022/10/31 06:38:26;;;;;;;11.85;9.30;;;;;;;13.18;83.49;101896.16;6246332;23;20004;-63
2022/10/31 06:40:52;;;;;;;28.45;10.10;;;;;;;13.11;82.88;101902.25;6246566;23;20054;-62
2022/10/31 06:43:17;;;;;;;32.67;9.70;;;;;;;13.03;83.08;101900.34;6246209;23;20367;-63
2022/10/31 06:45:43;;;;;;;28.33;10.27;;;;;;;13.00;84.30;101904.69;6246019;23;20004;-63
2022/10/31 06:48:08;;;;;;;38.53;9.52;;;;;;;13.00;84.49;101902.94;6246114;23;20008;-63
2022/10/31 06:50:33;;;;;;;23.88;9.55;;;;;;;13.01;84.48;101907.34;6246144;23;20005;-63
2022/10/31 06:52:59;;;;;;;25.50;10.55;;;;;;;13.04;84.58;101902.13;6246142;23;20012;-63
2022/10/31 06:55:26;;;;;;;24.23;9.82;;;;;;;13.08;84.44;101895.09;6246379;23;20083;-63
2022/10/31 06:57:52;;;;;;;23.38;9.98;;;;;;;13.11;83.52;101895.16;6246071;23;20079;-62
2022/10/31 07:00:19;;;;;;;13.45;9.73;;;;;;;13.17;83.52;101899.69;6246098;23;20439;-62
2022/10/31 07:02:55;;;;;;;14.77;8.80;;;;;;;13.23;83.99;101897.16;6246049;23;20000;-63
2022/10/31 07:05:21;;;;;;;22.25;9.88;;;;;;;13.22;83.73;101900.66;6246038;23;20422;-62
2022/10/31 07:07:46;;;;;;;15.95;9.77;;;;;;;13.27;83.74;101896.34;6246379;23;20004;-62
2022/10/31 07:10:12;;;;;;;14.05;10.20;;;;;;;13.30;84.24;101896.38;6245655;23;20483;-62
2022/10/31 07:12:37;;;;;;;15.85;10.38;;;;;;;13.35;84.64;101891.16;6246080;23;20015;-63
2022/10/31 07:15:03;;;;;;;17.17;11.25;;;;;;;13.41;84.50;101885.97;6245900;23;20015;-63
2022/10/31 07:17:29;;;;;;;16.85;10.85;;;;;;;13.44;84.22;101894.84;6245646;23;20038;-62
2022/10/31 07:19:54;;;;;;;18.40;11.05;;;;;;;13.50;84.12;101897.59;6246317;23;20465;-62
2022/10/31 07:22:19;;;;;;;15.50;9.85;;;;;;;13.53;83.37;101904.72;6245845;23;20518;-63
2022/10/31 07:24:45;;;;;;;14.35;10.23;;;;;;;13.57;83.62;101905.66;6245799;23;20046;-63
2022/10/31 07:27:10;;;;;;;15.13;10.95;;;;;;;13.62;84.37;101899.56;6193573;23;20450;-63
2022/10/31 07:29:35;;;;;;;13.98;10.85;;;;;;;13.65;84.49;101898.69;6245904;23;20061;-63
2022/10/31 07:32:01;;;;;;;18.13;11.38;;;;;;;13.70;84.63;101897.00;6245669;23;20012;-63
2022/10/31 07:34:27;;;;;;;14.32;11.68;;;;;;;13.75;84.76;101903.31;6245975;23;20446;-62
2022/10/31 07:36:52;;;;;;;14.68;11.48;;;;;;;13.80;84.48;101903.38;6245599;23;20079;-63
2022/10/31 07:39:17;;;;;;;16.35;11.18;;;;;;;13.82;84.15;101902.50;6245000;23;20040;-63
2022/10/31 07:41:43;;;;;;;20.25;12.50;;;;;;;13.86;84.58;101906.97;6245812;23;20058;-62
2022/10/31 07:44:08;;;;;;;17.52;12.57;;;;;;;13.96;84.60;101910.66;6245748;23;20338;-63
2022/10/31 07:46:34;;;;;;;19.55;12.35;;;;;;;14.04;84.31;101909.88;6245843;23;20004;-62
2022/10/31 07:48:59;;;;;;;18.35;13.55;;;;;;;14.09;84.56;101911.72;6246184;23;20011;-63
2022/10/31 07:51:24;;;;;;;18.08;13.25;;;;;;;14.14;84.77;101910.03;6245793;23;20320;-62
2022/10/31 07:53:50;;;;;;;19.23;13.98;;;;;;;14.18;84.63;101906.56;6246130;23;20008;-63
2022/10/31 07:56:15;;;;;;;18.08;13.20;;;;;;;14.20;84.35;101905.69;6245734;23;20039;-62
2022/10/31 07:58:40;;;;;;;17.95;13.35;;;;;;;14.20;84.49;101916.31;6245764;23;20015;-63
2022/10/31 08:01:06;;;;;;;36.85;14.02;;;;;;;14.17;84.69;101910.94;6245868;23;20019;-63
2022/10/31 08:03:31;;;;;;;15.80;12.98;;;;;;;14.26;85.06;101912.81;6245979;23;20011;-62
2022/10/31 08:05:57;;;;;;;20.38;12.90;;;;;;;14.30;84.96;101912.00;6245695;23;20019;-63
2022/10/31 08:08:23;;;;;;;19.35;14.20;;;;;;;14.35;85.04;101917.41;6245451;23;20011;-63
2022/10/31 08:10:49;;;;;;;23.10;14.52;;;;;;;14.34;85.31;101911.16;6217944;23;20012;-63
2022/10/31 08:13:14;;;;;;;24.92;15.35;;;;;;;14.43;85.56;101919.28;6246040;23;20008;-63
2022/10/31 08:15:41;;;;;;;21.70;15.55;;;;;;;14.55;85.42;101925.63;6245954;23;20058;-63
2022/10/31 08:18:12;;;;;;;22.85;16.20;;;;;;;14.58;85.14;101921.25;6246000;23;20031;-63
2022/10/31 08:20:37;;;;;;;20.58;14.88;;;;;;;14.71;85.28;101924.94;6245793;23;20005;-62
2022/10/31 08:23:04;;;;;;;20.33;13.93;;;;;;;14.86;84.67;101917.13;6246999;23;20083;-62
2022/10/31 08:25:32;;;;;;;22.40;16.10;;;;;;;15.07;85.12;101918.19;6247082;23;20012;-63
2022/10/31 08:27:57;;;;;;;23.92;16.85;;;;;;;15.13;84.40;101910.28;6247896;23;20042;-63
2022/10/31 08:30:26;;;;;;;23.02;16.08;;;;;;;15.24;84.21;101897.94;6247453;23;20004;-63
2022/10/31 08:33:06;;;;;;;26.05;16.67;;;;;;;15.41;84.11;101898.06;6247630;23;20071;-62
2022/10/31 08:35:33;;;;;;;27.52;16.65;;;;;;;15.72;84.21;101917.91;6247291;23;20401;-62
2022/10/31 08:37:58;;;;;;;26.25;17.15;;;;;;;16.08;83.09;101914.53;6247430;23;20083;-63
2022/10/31 08:40:26;;;;;;;29.48;17.45;;;;;;;16.31;81.66;101898.63;6247125;23;20051;-63
2022/10/31 08:42:56;;;;;;;27.48;17.45;;;;;;;16.42;80.52;101906.69;6247211;23;20011;-63
2022/10/31 08:45:22;;;;;;;27.65;17.58;;;;;;;16.27;80.90;101895.09;6247190;23;20346;-63
2022/10/31 08:47:47;;;;;;;29.15;17.52;;;;;;;16.11;81.74;101877.22;6247545;23;20035;-63
2022/10/31 08:50:13;;;;;;;30.10;18.50;;;;;;;15.91;81.88;101854.91;6247110;23;20008;-62
2022/10/31 08:52:38;;;;;;;28.02;18.95;;;;;;;15.76;83.58;101845.97;6247403;23;20008;-62
2022/10/31 08:55:04;;;;;;;34.75;20.30;;;;;;;15.62;84.09;101846.72;6220507;23;20053;-63
2022/10/31 08:57:29;;;;;;;32.55;18.52;;;;;;;15.53;84.39;101845.78;6247331;23;20059;-63
2022/10/31 08:59:55;;;;;;;30.70;19.10;;;;;;;15.47;85.15;101853.75;6247144;23;20039;-63
2022/10/31 09:02:20;;;;;;;32.08;19.48;;;;;;;15.37;85.00;101854.53;6247236;23;20004;-62
2022/10/31 09:04:46;;;;;;;29.58;19.75;;;;;;;15.32;85.51;101868.72;6247173;23;20034;-62
2022/10/31 09:07:11;;;;;;;31.55;19.77;;;;;;;15.27;85.70;101863.34;6247434;23;20011;-63
2022/10/31 09:09:37;;;;;;;34.88;19.80;;;;;;;15.26;85.67;101865.13;6246975;23;20059;-62
2022/10/31 09:12:02;;;;;;;32.00;20.42;;;;;;;15.27;86.04;101863.34;6247020;23;20330;-63
2022/10/31 09:14:27;;;;;;;32.65;20.65;;;;;;;15.36;85.90;101857.22;6246993;23;20011;-63
2022/10/31 09:16:53;;;;;;;38.00;21.67;;;;;;;15.48;86.74;101862.63;6247403;23;20011;-63
2022/10/31 09:19:18;;;;;;;36.70;20.63;;;;;;;15.59;86.31;101876.00;6247025;23;20012;-63
2022/10/31 09:21:43;;;;;;;31.40;20.00;;;;;;;15.64;85.80;101875.19;6246956;23;20427;-63
2022/10/31 09:24:09;;;;;;;31.13;20.30;;;;;;;15.68;86.59;101884.13;6220249;23;20012;-63
2022/10/31 09:26:34;;;;;;;32.88;19.73;;;;;;;15.73;86.54;101861.03;6246630;23;20039;-62
2022/10/31 09:29:01;;;;;;;40.13;19.83;;;;;;;15.78;86.67;101852.19;6247254;23;20004;-63
2022/10/31 09:31:27;;;;;;;33.58;18.48;;;;;;;15.85;86.18;101849.56;6247071;23;20009;-62
2022/10/31 09:33:54;;;;;;;31.45;19.33;;;;;;;15.91;86.68;101842.47;6219851;23;20004;-63
2022/10/31 09:36:19;;;;;;;35.13;20.23;;;;;;;15.93;86.08;101840.72;6246822;23;20012;-63
2022/10/31 09:38:44;;;;;;;31.10;18.92;;;;;;;15.97;85.58;101821.19;6246532;23;20331;-62
2022/10/31 09:41:40;;;;;;;34.42;18.98;;;;;;;15.97;86.14;101809.59;6246798;23;20008;-63
2022/10/31 09:44:26;;;;;;;35.97;18.65;;;;;;;15.94;86.12;101809.63;6220530;23;20079;-62
2022/10/31 09:47:03;;;;;;;28.95;18.20;;;;;;;15.92;86.16;101790.03;6246616;23;20370;-63
2022/10/31 09:49:50;;;;;;;29.77;18.17;;;;;;;15.88;86.93;101804.25;6246389;23;20000;-62
2022/10/31 09:52:22;;;;;;;31.50;18.45;;;;;;;15.88;86.63;101826.47;6246675;23;20011;-62
2022/10/31 09:54:54;;;;;;;34.25;18.70;;;;;;;15.90;86.90;101816.72;6246194;23;20014;-64
2022/10/31 09:57:24;;;;;;;;;;;;;;;15.98;85.32;101808.75;6247471;23;20008;-64
2022/10/31 09:59:50;;;;;;;31.27;17.40;;;;;;;15.95;86.56;101806.94;6246385;23;19907;-64
2022/10/31 10:02:22;;;;;;;35.08;19.77;;;;;;;15.94;86.95;101810.50;6246434;23;20427;-65
2022/10/31 10:04:58;;;;;;;36.92;17.33;;;;;;;15.98;85.70;101816.75;6219614;23;20335;-64
2022/10/31 10:07:32;;;;;;;28.42;17.65;;;;;;;16.02;86.53;101805.22;6246713;23;20034;-65
2022/10/31 10:10:00;;;;;;;33.17;17.52;;;;;;;16.00;86.67;101802.53;6246193;23;20000;-64
2022/10/31 10:12:37;;;;;;;30.58;18.58;;;;;;;16.08;86.58;101797.22;6246717;23;20079;-65
2022/10/31 10:15:23;;;;;;;28.23;17.60;;;;;;;16.14;85.76;101786.56;6246141;23;20370;-64
2022/10/31 10:18:10;;;;;;;30.95;17.83;;;;;;;16.31;87.07;101781.28;6246269;23;20079;-65
2022/10/31 10:20:56;;;;;;;29.70;18.42;;;;;;;16.67;85.54;101782.22;6246352;23;20008;-65
2022/10/31 10:23:49;;;;;;;27.80;17.65;;;;;;;17.00;84.47;101778.69;6246583;23;20023;-64
2022/10/31 10:26:19;;;;;;;34.40;18.98;;;;;;;17.08;81.91;101771.56;6246119;23;20019;-64
2022/10/31 10:28:54;;;;;;;30.30;18.63;;;;;;;17.25;82.13;101753.72;6246494;23;20004;-65
2022/10/31 10:31:34;;;;;;;34.17;20.15;;;;;;;17.34;81.30;101752.81;6246197;23;20012;-65
2022/10/31 10:34:22;;;;;;;39.72;21.90;;;;;;;17.32;80.94;101743.91;6246031;23;20040;-65
2022/10/31 10:37:02;;;;;;;34.75;19.90;;;;;;;17.25;80.85;101748.38;6246194;23;20496;-63
2022/10/31 10:39:32;;;;;;;36.45;20.45;;;;;;;17.16;80.55;101743.06;6246002;23;20008;-63
2022/10/31 10:47:41;;;;;;;38.50;21.08;;;;;;;17.12;82.04;101749.28;6246302;23;20023;-64
2022/10/31 10:50:18;;;;;;;36.55;21.10;;;;;;;17.16;81.97;101758.19;6246133;23;20027;-63
2022/10/31 10:52:59;;;;;;;37.10;20.15;;;;;;;17.21;81.72;101754.63;6246459;23;20078;-63
2022/10/31 10:55:24;;;;;;;39.67;21.58;;;;;;;17.30;81.45;101752.81;6245869;23;20434;-64
2022/10/31 10:57:57;;;;;;;35.83;21.83;;;;;;;17.35;81.15;101740.38;6246167;23;20001;-62
2022/10/31 11:00:29;;;;;;;36.75;21.38;;;;;;;17.40;80.97;101744.78;6246681;23;20004;-64
2022/10/31 11:02:55;;;;;;;36.05;21.52;;;;;;;17.40;80.67;101734.09;6246331;23;20028;-63
2022/10/31 11:05:44;;;;;;;43.78;22.70;;;;;;;17.45;80.79;101724.28;6246140;23;20035;-63
2022/10/31 11:08:11;;;;;;;43.92;22.77;;;;;;;17.45;80.17;101729.63;6245995;23;20311;-63
2022/10/31 11:10:37;;;;;;;40.33;22.63;;;;;;;17.45;80.77;101732.28;6245737;23;20008;-63
2022/10/31 11:13:21;;;;;;;41.15;22.60;;;;;;;17.47;81.05;101727.84;6219526;23;20004;-64
2022/10/31 11:16:03;;;;;;;39.25;22.05;;;;;;;17.58;81.07;101732.25;6218995;23;20024;-62
2022/10/31 11:18:42;;;;;;;38.25;22.88;;;;;;;17.61;80.02;101730.47;6246049;23;20032;-64
2022/10/31 11:21:29;;;;;;;48.75;21.95;;;;;;;17.69;80.07;101730.44;6246027;23;20075;-63
2022/10/31 11:24:14;;;;;;;39.33;23.08;;;;;;;17.70;80.08;101725.06;6246013;23;20022;-64
2022/10/31 11:26:41;;;;;;;41.05;22.50;;;;;;;17.72;80.29;101722.38;6245684;23;20429;-64
2022/10/31 11:29:21;;;;;;;34.75;22.95;;;;;;;17.75;79.94;101698.34;6218994;23;20000;-64
2022/10/31 11:31:48;;;;;;;36.63;22.02;;;;;;;17.74;79.86;101675.19;6245865;23;20004;-64